Time;durP1;ratioP1;P1;durP2;ratioP2;P2;SDS_P1;SDS_P2;PMS_P1;PMS_P2;Temp;Humidity;BMP_temperature;BMP_pressure;BME280_temperature;BME280_humidity;BME280_pressure;Samples;Min_cycle;Max_cycle;Signal;HPM_P1;HPM_P2
2022/12/10 00:01:53;;;;;;;;;;;1.40;96.30;;;;;;4974403;28;1910;-70
2022/12/10 00:04:20;;;;;;;;;;;1.30;96.30;;;;;;4974279;28;1257;-70
2022/12/10 00:06:48;;;;;;;;;;;1.40;96.60;;;;;;4974570;28;1050;-70
2022/12/10 00:09:18;;;;;;;;;;;1.40;96.30;;;;;;4975335;28;1041;-71
2022/12/10 00:11:46;;;;;;;;;;;1.30;96.30;;;;;;4974275;28;1111;-70
2022/12/10 00:14:14;;;;;;;;;;;1.40;96.30;;;;;;4974981;28;1239;-69
2022/12/10 00:16:42;;;;;;;;;;;1.40;96.00;;;;;;4975524;28;2097;-69
2022/12/10 00:19:10;;;;;;;;;;;1.30;96.40;;;;;;4978099;28;1110;-69
2022/12/10 00:21:38;;;;;;;;;;;1.30;96.40;;;;;;4978228;28;923;-70
2022/12/10 00:24:06;;;;;;;;;;;1.40;96.00;;;;;;4978318;28;1248;-70
2022/12/10 00:26:36;;;;;;;;;;;1.50;95.90;;;;;;4976911;28;1268;-71
2022/12/10 00:29:06;;;;;;;;;;;1.50;95.80;;;;;;4977960;28;1432;-70
2022/12/10 00:31:34;;;;;;;;;;;1.80;96.00;;;;;;4976557;28;1418;-69
2022/12/10 00:34:03;;;;;;;;;;;1.60;96.00;;;;;;4977876;28;1395;-71
2022/12/10 00:36:32;;;;;;;;;;;1.30;96.30;;;;;;4977721;28;1134;-71
2022/12/10 00:39:00;;;;;;;;;;;1.30;96.00;;;;;;4977488;28;1016;-71
2022/12/10 00:41:28;;;;;;;;;;;1.40;95.80;;;;;;4975999;28;1031;-69
2022/12/10 00:43:57;;;;;;;;;;;1.40;95.90;;;;;;4977094;28;1995;-70
2022/12/10 00:46:25;;;;;;;;;;;1.50;95.60;;;;;;4978367;28;1023;-70
2022/12/10 00:48:53;;;;;;;;;;;1.70;95.60;;;;;;4980831;28;1679;-70
2022/12/10 00:51:21;;;;;;;;;;;1.30;95.70;;;;;;4978340;28;1753;-70
2022/12/10 00:53:50;;;;;;;;;;;1.50;95.70;;;;;;4979443;28;1296;-70
2022/12/10 00:56:19;;;;;;;;;;;1.60;95.40;;;;;;4979922;28;1030;-69
2022/12/10 00:58:48;;;;;;;;;;;1.50;95.30;;;;;;4979297;28;1471;-70
2022/12/10 01:01:19;;;;;;;;;;;1.60;95.20;;;;;;4980020;28;1273;-71
2022/12/10 01:03:48;;;;;;;;;;;1.50;95.00;;;;;;4978323;28;1971;-69
2022/12/10 01:06:17;;;;;;;;;;;1.60;95.30;;;;;;4976866;28;1165;-69
2022/12/10 01:08:45;;;;;;;;;;;1.40;95.20;;;;;;4976531;28;1077;-68
2022/12/10 01:11:14;;;;;;;;;;;1.40;95.10;;;;;;4976763;28;1181;-70
2022/12/10 01:13:42;;;;;;;;;;;1.60;95.60;;;;;;4976925;28;1257;-70
2022/12/10 01:16:11;;;;;;;;;;;1.30;95.70;;;;;;4976579;28;1095;-70
2022/12/10 01:18:40;;;;;;;;;;;1.30;95.60;;;;;;4976497;28;1279;-71
2022/12/10 01:21:09;;;;;;;;;;;1.40;95.80;;;;;;4976777;28;1346;-71
2022/12/10 01:23:38;;;;;;;;;;;1.40;95.60;;;;;;4976473;28;1902;-71
2022/12/10 01:26:06;;;;;;;;;;;1.60;95.60;;;;;;4976134;28;1228;-71
2022/12/10 01:28:35;;;;;;;;;;;1.50;95.50;;;;;;4976420;28;1480;-71
2022/12/10 01:31:03;;;;;;;;;;;1.50;95.20;;;;;;4977170;28;1099;-71
2022/12/10 01:33:31;;;;;;;;;;;1.60;95.20;;;;;;4979011;28;1292;-69
2022/12/10 01:36:03;;;;;;;;;;;1.50;95.30;;;;;;4984460;28;1026;-70
2022/12/10 01:38:31;;;;;;;;;;;1.40;95.40;;;;;;4980375;28;1069;-71
2022/12/10 01:40:58;;;;;;;;;;;1.40;95.70;;;;;;4977250;28;1922;-71
2022/12/10 01:43:26;;;;;;;;;;;1.50;95.40;;;;;;4976682;28;1903;-70
2022/12/10 01:45:54;;;;;;;;;;;1.40;95.40;;;;;;4975670;28;1040;-70
2022/12/10 01:48:21;;;;;;;;;;;1.40;95.30;;;;;;4976348;28;1077;-70
2022/12/10 01:50:49;;;;;;;;;;;1.40;95.30;;;;;;4976260;28;1125;-69
2022/12/10 01:53:18;;;;;;;;;;;1.40;95.10;;;;;;4975905;28;1357;-71
2022/12/10 01:55:49;;;;;;;;;;;1.40;95.20;;;;;;4975816;28;1083;-69
2022/12/10 01:58:17;;;;;;;;;;;1.30;95.30;;;;;;4975917;28;1290;-69
2022/12/10 02:00:50;;;;;;;;;;;1.30;95.40;;;;;;4975538;28;1091;-68
2022/12/10 02:03:20;;;;;;;;;;;1.30;95.30;;;;;;4975432;28;1903;-70
2022/12/10 02:05:52;;;;;;;;;;;1.30;95.50;;;;;;4975870;28;1088;-70
2022/12/10 02:08:27;;;;;;;;;;;1.40;95.10;;;;;;4975819;28;1109;-69
2022/12/10 02:11:00;;;;;;;;;;;1.40;95.20;;;;;;4975921;28;1078;-70
2022/12/10 02:19:40;;;;;;;;;;;1.40;94.30;;;;;;4977148;29;918;-89
2022/12/10 02:22:09;;;;;;;;;;;1.40;94.50;;;;;;4976987;29;1575;-91
2022/12/10 02:24:38;;;;;;;;;;;1.40;94.50;;;;;;4979756;28;1887;-91
2022/12/10 02:27:10;;;;;;;;;;;1.40;94.60;;;;;;4977121;28;1734;-90
2022/12/10 02:29:40;;;;;;;;;;;1.30;94.20;;;;;;4970494;28;1580;-91
2022/12/10 02:32:09;;;;;;;;;;;1.30;94.60;;;;;;4972712;29;1093;-90
2022/12/10 02:34:39;;;;;;;;;;;1.40;94.20;;;;;;4973108;29;1695;-90
2022/12/10 02:37:09;;;;;;;;;;;1.60;94.00;;;;;;4974573;28;1205;-90
2022/12/10 02:39:39;;;;;;;;;;;1.30;93.60;;;;;;4969345;28;1552;-90
2022/12/10 02:42:08;;;;;;;;;;;1.30;94.10;;;;;;4977252;28;1101;-91
2022/12/10 02:44:36;;;;;;;;;;;1.40;94.30;;;;;;4979927;28;1883;-90
2022/12/10 02:47:06;;;;;;;;;;;1.30;94.00;;;;;;4979401;28;1563;-89
2022/12/10 02:49:35;;;;;;;;;;;1.30;93.90;;;;;;4978710;29;1155;-90
2022/12/10 02:52:07;;;;;;;;;;;1.50;94.00;;;;;;4979338;28;1104;-90
2022/12/10 02:54:37;;;;;;;;;;;1.30;94.10;;;;;;4978969;29;1038;-90
2022/12/10 02:57:08;;;;;;;;;;;1.40;94.00;;;;;;4978994;28;1693;-91
2022/12/10 02:59:41;;;;;;;;;;;1.30;93.50;;;;;;4974386;29;1236;-92
2022/12/10 03:02:15;;;;;;;;;;;1.50;93.90;;;;;;4969369;29;1573;-89
2022/12/10 03:04:46;;;;;;;;;;;1.70;93.60;;;;;;4971694;29;1976;-90
2022/12/10 03:07:17;;;;;;;;;;;1.40;93.70;;;;;;4965812;28;1893;-89
2022/12/10 03:09:47;;;;;;;;;;;1.40;93.60;;;;;;4962053;29;994;-90
2022/12/10 03:12:18;;;;;;;;;;;1.30;93.70;;;;;;4961678;29;1553;-90
2022/12/10 03:14:46;;;;;;;;;;;1.40;93.60;;;;;;4962767;29;1128;-90
2022/12/10 03:17:15;;;;;;;;;;;1.40;93.30;;;;;;4961999;28;1554;-90
2022/12/10 03:19:45;;;;;;;;;;;1.40;93.50;;;;;;4965222;29;966;-90
2022/12/10 03:22:13;;;;;;;;;;;1.20;92.80;;;;;;4979595;28;1550;-89
2022/12/10 03:24:43;;;;;;;;;;;1.20;92.80;;;;;;4974845;28;1879;-91
2022/12/10 03:27:12;;;;;;;;;;;1.20;93.00;;;;;;4962250;28;1368;-90
2022/12/10 03:29:41;;;;;;;;;;;1.30;92.90;;;;;;4963184;29;1646;-90
2022/12/10 03:32:14;;;;;;;;;;;1.50;93.00;;;;;;4961089;29;1593;-89
2022/12/10 03:34:44;;;;;;;;;;;1.40;92.60;;;;;;4961137;29;971;-89
2022/12/10 03:37:11;;;;;;;;;;;1.40;92.40;;;;;;4960334;28;1572;-89
2022/12/10 03:39:39;;;;;;;;;;;1.30;92.10;;;;;;4963998;29;1709;-90
2022/12/10 03:42:08;;;;;;;;;;;1.20;92.40;;;;;;4962557;29;1058;-91
2022/12/10 03:44:36;;;;;;;;;;;1.50;92.20;;;;;;4964313;29;1998;-90
2022/12/10 03:47:05;;;;;;;;;;;1.50;91.90;;;;;;4964257;28;1660;-90
2022/12/10 03:49:33;;;;;;;;;;;1.60;92.10;;;;;;4963792;28;1647;-91
2022/12/10 03:52:02;;;;;;;;;;;1.60;92.10;;;;;;4964689;29;1006;-89
2022/12/10 03:54:30;;;;;;;;;;;1.50;92.10;;;;;;4963845;29;1003;-90
2022/12/10 03:56:58;;;;;;;;;;;1.50;92.00;;;;;;4963868;28;1725;-91
2022/12/10 03:59:25;;;;;;;;;;;1.60;91.90;;;;;;4963736;28;1649;-90
2022/12/10 04:01:53;;;;;;;;;;;1.50;92.10;;;;;;4965923;29;1581;-87
2022/12/10 04:04:21;;;;;;;;;;;1.60;92.00;;;;;;4963564;29;1894;-89
2022/12/10 04:06:49;;;;;;;;;;;1.60;91.80;;;;;;4962914;29;1624;-89
2022/12/10 04:09:18;;;;;;;;;;;1.60;91.40;;;;;;4960328;28;1595;-90
2022/12/10 04:11:45;;;;;;;;;;;1.50;91.80;;;;;;4960875;29;997;-89
2022/12/10 04:16:59;;;;;;;;;;;1.60;91.90;;;;;;4962112;29;1561;-89
2022/12/10 04:19:27;;;;;;;;;;;1.80;91.70;;;;;;4961639;28;1391;-89
2022/12/10 04:27:28;;;;;;;;;;;1.50;92.10;;;;;;4960482;28;1383;-88
2022/12/10 04:29:56;;;;;;;;;;;1.40;91.90;;;;;;4960087;29;994;-90
2022/12/10 04:32:24;;;;;;;;;;;1.40;92.10;;;;;;4971210;28;1055;-89
2022/12/10 04:34:52;;;;;;;;;;;1.50;92.10;;;;;;4977012;28;1585;-90
2022/12/10 04:37:20;;;;;;;;;;;1.60;91.40;;;;;;4962317;28;1305;-90
2022/12/10 04:39:50;;;;;;;;;;;1.70;91.90;;;;;;4962034;28;1640;-89
2022/12/10 04:42:17;;;;;;;;;;;1.60;91.80;;;;;;4961560;29;1112;-89
2022/12/10 04:44:45;;;;;;;;;;;1.40;91.20;;;;;;4961164;29;1906;-89
2022/12/10 04:47:13;;;;;;;;;;;1.50;91.70;;;;;;4960073;28;1696;-90
2022/12/10 04:49:42;;;;;;;;;;;1.50;91.90;;;;;;4961742;29;1628;-89
2022/12/10 04:52:11;;;;;;;;;;;1.80;91.40;;;;;;4961690;28;1606;-90
2022/12/10 04:54:39;;;;;;;;;;;1.50;91.90;;;;;;4959856;29;1638;-89
2022/12/10 04:57:09;;;;;;;;;;;1.60;91.80;;;;;;4962741;28;1217;-90
2022/12/10 04:59:36;;;;;;;;;;;1.20;91.80;;;;;;4961178;29;1692;-89
2022/12/10 05:02:04;;;;;;;;;;;1.40;91.60;;;;;;4963541;28;1730;-89
2022/12/10 05:04:32;;;;;;;;;;;1.20;91.40;;;;;;4964549;29;1970;-90
2022/12/10 05:07:00;;;;;;;;;;;1.20;92.00;;;;;;4964125;28;1660;-89
2022/12/10 05:09:30;;;;;;;;;;;1.20;91.80;;;;;;4964386;28;1264;-89
2022/12/10 05:11:58;;;;;;;;;;;1.30;92.20;;;;;;4965168;29;1105;-88
2022/12/10 05:14:27;;;;;;;;;;;1.30;91.50;;;;;;4965159;29;1561;-90
2022/12/10 05:16:55;;;;;;;;;;;1.50;91.80;;;;;;4964418;28;1371;-90
2022/12/10 05:19:23;;;;;;;;;;;1.30;91.40;;;;;;4964611;28;1506;-90
2022/12/10 05:24:36;;;;;;;;;;;1.30;91.90;;;;;;4965041;29;1906;-89
2022/12/10 05:27:04;;;;;;;;;;;1.20;92.00;;;;;;4945052;29;1026;-90
2022/12/10 05:29:34;;;;;;;;;;;1.40;91.90;;;;;;4945434;29;1510;-91
2022/12/10 05:32:01;;;;;;;;;;;1.30;92.20;;;;;;4945814;29;1054;-90
2022/12/10 05:34:29;;;;;;;;;;;1.60;91.40;;;;;;4945756;29;1185;-91
2022/12/10 05:36:57;;;;;;;;;;;1.50;91.80;;;;;;4955547;29;990;-90
2022/12/10 05:39:25;;;;;;;;;;;1.10;91.70;;;;;;4965697;28;1510;-89
2022/12/10 05:41:52;;;;;;;;;;;1.50;91.80;;;;;;4967924;29;1722;-88
2022/12/10 05:44:20;;;;;;;;;;;1.40;91.70;;;;;;4981890;28;1014;-89
2022/12/10 05:46:49;;;;;;;;;;;1.30;91.80;;;;;;4978489;28;1949;-89
2022/12/10 05:49:17;;;;;;;;;;;1.30;91.90;;;;;;4970304;28;1511;-89
2022/12/10 05:51:44;;;;;;;;;;;1.40;91.60;;;;;;4970271;29;1511;-90
2022/12/10 05:54:12;;;;;;;;;;;1.40;91.50;;;;;;4968882;29;1639;-89
2022/12/10 05:56:40;;;;;;;;;;;1.10;91.80;;;;;;4968289;29;971;-90
2022/12/10 05:59:07;;;;;;;;;;;1.20;92.00;;;;;;4963994;28;1654;-90
2022/12/10 06:01:43;;;;;;;;;;;0.90;92.10;;;;;;4963510;29;1588;-88
2022/12/10 06:04:13;;;;;;;;;;;0.70;92.90;;;;;;4965660;29;1575;-88
2022/12/10 06:06:40;;;;;;;;;;;0.70;92.90;;;;;;4960322;29;1993;-89
2022/12/10 06:09:11;;;;;;;;;;;0.70;92.70;;;;;;4956329;28;1387;-89
2022/12/10 06:11:39;;;;;;;;;;;0.70;93.20;;;;;;4964699;29;1629;-90
2022/12/10 06:14:09;;;;;;;;;;;0.70;93.10;;;;;;4964285;28;1277;-89
2022/12/10 06:16:37;;;;;;;;;;;0.50;93.50;;;;;;4962045;29;1716;-88
2022/12/10 06:19:04;;;;;;;;;;;0.50;93.60;;;;;;4954377;29;1337;-88
2022/12/10 06:21:34;;;;;;;;;;;0.50;93.20;;;;;;4949656;29;1049;-88
2022/12/10 06:24:11;;;;;;;;;;;0.40;93.80;;;;;;4955254;29;1521;-90
2022/12/10 06:26:38;;;;;;;;;;;0.40;94.00;;;;;;4953792;29;1907;-88
2022/12/10 06:29:06;;;;;;;;;;;0.40;93.70;;;;;;4951238;29;1526;-88
2022/12/10 06:31:34;;;;;;;;;;;0.60;93.50;;;;;;4953948;29;1679;-88
2022/12/10 06:34:02;;;;;;;;;;;0.30;93.90;;;;;;4960511;28;1382;-88
2022/12/10 06:36:30;;;;;;;;;;;0.40;93.80;;;;;;4964715;29;839;-89
2022/12/10 06:39:04;;;;;;;;;;;0.30;93.50;;;;;;4960799;28;1401;-89
2022/12/10 06:41:32;;;;;;;;;;;0.30;93.80;;;;;;4953219;29;1256;-89
2022/12/10 06:44:10;;;;;;;;;;;0.30;93.90;;;;;;4950541;29;1181;-89
2022/12/10 06:46:40;;;;;;;;;;;0.40;94.70;;;;;;4953567;29;1910;-88
2022/12/10 06:49:08;;;;;;;;;;;0.30;94.10;;;;;;4957247;28;1319;-89
2022/12/10 06:51:38;;;;;;;;;;;0.30;94.30;;;;;;4958616;29;1577;-90
2022/12/10 06:54:07;;;;;;;;;;;0.20;94.30;;;;;;4944778;29;1411;-88
2022/12/10 06:56:34;;;;;;;;;;;0.30;94.50;;;;;;4960000;28;1384;-88
2022/12/10 06:59:04;;;;;;;;;;;0.20;94.00;;;;;;4968666;28;1202;-89
2022/12/10 07:01:33;;;;;;;;;;;0.20;94.60;;;;;;4957140;29;1214;-88
2022/12/10 07:04:01;;;;;;;;;;;0.30;94.90;;;;;;4965118;29;1554;-89
2022/12/10 07:06:31;;;;;;;;;;;0.10;94.20;;;;;;4959188;28;1895;-91
2022/12/10 07:09:01;;;;;;;;;;;0.20;94.40;;;;;;4966672;29;1679;-89
2022/12/10 07:11:32;;;;;;;;;;;-0.10;94.30;;;;;;4968150;29;1549;-90
2022/12/10 07:14:00;;;;;;;;;;;0.20;94.90;;;;;;4967122;29;1576;-89
2022/12/10 07:16:29;;;;;;;;;;;0.20;95.00;;;;;;4967923;29;1523;-90
2022/12/10 07:18:58;;;;;;;;;;;0.50;94.90;;;;;;4967023;28;1730;-89
2022/12/10 07:21:27;;;;;;;;;;;0.50;95.20;;;;;;4963783;29;1016;-88
2022/12/10 07:23:57;;;;;;;;;;;0.20;94.70;;;;;;4949366;29;1673;-88
2022/12/10 07:26:25;;;;;;;;;;;0.30;94.50;;;;;;4958750;29;1966;-89
2022/12/10 07:28:54;;;;;;;;;;;0.30;94.30;;;;;;4954010;29;1775;-89
2022/12/10 07:31:23;;;;;;;;;;;0.20;94.00;;;;;;4963564;29;979;-88
2022/12/10 07:37:20;;;;;;;;;;;0.30;93.90;;;;;;4966250;23;1533;-71
2022/12/10 07:39:47;;;;;;;;;;;0.40;93.70;;;;;;4956300;29;1039;-71
2022/12/10 07:42:15;;;;;;;;;;;0.50;93.70;;;;;;4955099;28;1297;-71
2022/12/10 07:44:45;;;;;;;;;;;0.70;93.50;;;;;;4956080;29;1732;-71
2022/12/10 07:47:16;;;;;;;;;;;0.50;93.30;;;;;;4955380;28;1950;-72
2022/12/10 07:49:43;;;;;;;;;;;0.60;93.60;;;;;;4955493;28;1098;-71
2022/12/10 07:52:11;;;;;;;;;;;0.70;93.40;;;;;;4956188;28;1000;-71
2022/12/10 07:54:39;;;;;;;;;;;0.70;93.00;;;;;;4955162;29;1546;-72
2022/12/10 07:57:07;;;;;;;;;;;0.70;93.10;;;;;;4955863;29;1056;-71
2022/12/10 07:59:35;;;;;;;;;;;0.40;93.00;;;;;;4955689;28;1605;-70
2022/12/10 08:02:04;;;;;;;;;;;0.30;93.30;;;;;;4955857;29;1321;-70
2022/12/10 08:04:35;;;;;;;;;;;0.40;93.10;;;;;;4956630;28;1468;-70
2022/12/10 08:07:03;;;;;;;;;;;0.50;93.50;;;;;;4953241;28;1993;-70
2022/12/10 08:09:30;;;;;;;;;;;0.40;92.90;;;;;;4956012;29;1083;-70
2022/12/10 08:11:58;;;;;;;;;;;0.60;93.50;;;;;;4955499;29;1486;-70
2022/12/10 08:14:26;;;;;;;;;;;0.60;93.30;;;;;;4955514;28;2064;-70
2022/12/10 08:16:54;;;;;;;;;;;0.70;92.60;;;;;;4955874;29;1521;-71
2022/12/10 08:19:23;;;;;;;;;;;0.90;93.00;;;;;;4954656;29;1406;-70
2022/12/10 08:21:58;;;;;;;;;;;0.70;92.70;;;;;;4954880;28;1522;-70
2022/12/10 08:24:26;;;;;;;;;;;0.70;92.50;;;;;;4954420;28;1596;-70
2022/12/10 08:26:54;;;;;;;;;;;0.50;92.70;;;;;;4951846;29;1980;-70
2022/12/10 08:29:21;;;;;;;;;;;0.60;92.50;;;;;;4958698;29;1621;-74
2022/12/10 08:31:49;;;;;;;;;;;0.60;92.40;;;;;;4958910;28;1540;-72
2022/12/10 08:34:19;;;;;;;;;;;0.60;92.10;;;;;;4954776;28;1214;-70
2022/12/10 08:36:48;;;;;;;;;;;0.80;91.80;;;;;;4955087;28;1136;-71
2022/12/10 08:39:16;;;;;;;;;;;0.90;91.80;;;;;;4955832;29;1685;-71
2022/12/10 08:41:44;;;;;;;;;;;0.70;91.90;;;;;;4957023;28;1689;-70
2022/12/10 08:44:12;;;;;;;;;;;0.90;92.40;;;;;;4958039;28;1358;-70
2022/12/10 08:46:40;;;;;;;;;;;0.70;92.20;;;;;;4957146;29;2022;-70
2022/12/10 08:49:08;;;;;;;;;;;0.70;92.50;;;;;;4957884;28;1273;-69
2022/12/10 08:51:37;;;;;;;;;;;0.50;92.90;;;;;;4957032;28;1469;-68
2022/12/10 08:54:05;;;;;;;;;;;0.50;92.90;;;;;;4955568;28;1301;-69
2022/12/10 08:56:33;;;;;;;;;;;0.60;93.20;;;;;;4955462;29;1638;-69
2022/12/10 08:59:01;;;;;;;;;;;0.60;92.90;;;;;;4956623;28;1285;-69
2022/12/10 09:01:28;;;;;;;;;;;0.60;92.80;;;;;;4956957;28;1197;-72
2022/12/10 09:03:57;;;;;;;;;;;0.90;92.80;;;;;;4957934;28;1424;-68
2022/12/10 09:06:25;;;;;;;;;;;0.80;92.60;;;;;;4957200;28;1907;-68
2022/12/10 09:08:53;;;;;;;;;;;0.80;93.30;;;;;;4957177;28;1530;-70
2022/12/10 09:11:25;;;;;;;;;;;1.00;93.70;;;;;;4955866;29;1130;-71
2022/12/10 09:13:53;;;;;;;;;;;0.90;93.90;;;;;;4955689;28;1418;-74
2022/12/10 09:16:21;;;;;;;;;;;0.80;93.10;;;;;;4955439;28;1012;-73
2022/12/10 09:18:49;;;;;;;;;;;0.80;93.60;;;;;;4953637;28;1682;-73
2022/12/10 09:21:18;;;;;;;;;;;1.00;92.90;;;;;;4956297;29;1630;-73
2022/12/10 09:23:46;;;;;;;;;;;0.80;92.20;;;;;;4955658;28;1892;-73
2022/12/10 09:26:14;;;;;;;;;;;0.90;92.70;;;;;;4955483;29;1466;-72
2022/12/10 09:28:44;;;;;;;;;;;0.80;92.30;;;;;;4955318;29;1907;-73
2022/12/10 09:31:12;;;;;;;;;;;0.90;92.50;;;;;;4957149;29;1763;-74
2022/12/10 09:33:48;;;;;;;;;;;0.80;91.50;;;;;;4957498;28;1525;-72
2022/12/10 09:36:20;;;;;;;;;;;0.80;91.30;;;;;;4957317;29;1629;-71
2022/12/10 09:38:47;;;;;;;;;;;0.80;91.60;;;;;;4956109;28;1215;-71
2022/12/10 09:41:22;;;;;;;;;;;0.90;91.10;;;;;;4958132;28;1708;-70
2022/12/10 09:43:56;;;;;;;;;;;0.70;90.80;;;;;;4955539;28;1751;-72
2022/12/10 09:46:27;;;;;;;;;;;0.70;91.20;;;;;;4955955;29;1146;-71
2022/12/10 09:48:59;;;;;;;;;;;0.80;91.40;;;;;;4955636;28;1898;-72
2022/12/10 09:51:28;;;;;;;;;;;0.90;91.40;;;;;;4955163;29;1498;-71
2022/12/10 09:53:59;;;;;;;;;;;1.10;91.10;;;;;;4956117;28;1354;-71
2022/12/10 09:56:27;;;;;;;;;;;1.20;90.10;;;;;;4956251;28;1114;-72
2022/12/10 09:58:57;;;;;;;;;;;1.10;89.80;;;;;;4956358;28;1184;-71
2022/12/10 10:01:27;;;;;;;;;;;1.30;90.50;;;;;;4956349;29;1162;-71
2022/12/10 10:03:56;;;;;;;;;;;1.00;90.80;;;;;;4954211;28;1320;-72
2022/12/10 10:06:24;;;;;;;;;;;1.00;90.50;;;;;;4954644;29;1086;-70
2022/12/10 10:08:53;;;;;;;;;;;1.10;90.70;;;;;;4952811;28;2941;-72
2022/12/10 10:11:23;;;;;;;;;;;0.90;90.50;;;;;;4957089;29;1352;-71
2022/12/10 10:13:52;;;;;;;;;;;0.90;90.40;;;;;;4956592;28;1743;-71
2022/12/10 10:16:24;;;;;;;;;;;0.70;90.70;;;;;;4956016;28;1376;-72
2022/12/10 10:18:55;;;;;;;;;;;0.70;90.60;;;;;;4954721;29;1562;-73
2022/12/10 10:21:25;;;;;;;;;;;0.90;90.50;;;;;;4956768;29;1149;-72
2022/12/10 10:23:53;;;;;;;;;;;0.90;90.10;;;;;;4956545;28;1504;-72
2022/12/10 10:26:21;;;;;;;;;;;0.80;90.00;;;;;;4957935;29;1070;-73
2022/12/10 10:28:49;;;;;;;;;;;0.90;90.30;;;;;;4956138;28;2005;-71
2022/12/10 10:31:19;;;;;;;;;;;1.10;90.00;;;;;;4956036;28;1507;-72
2022/12/10 10:33:56;;;;;;;;;;;1.00;90.00;;;;;;4955837;28;1376;-71
2022/12/10 10:36:25;;;;;;;;;;;1.00;90.30;;;;;;4956224;29;1664;-78
2022/12/10 10:38:53;;;;;;;;;;;1.10;90.10;;;;;;4955866;29;1637;-73
2022/12/10 10:41:20;;;;;;;;;;;1.10;89.90;;;;;;4956088;29;1411;-69
2022/12/10 10:43:52;;;;;;;;;;;1.00;90.10;;;;;;4955986;28;1377;-70
2022/12/10 10:46:23;;;;;;;;;;;1.00;90.10;;;;;;4957247;29;1676;-69
2022/12/10 10:48:52;;;;;;;;;;;1.10;89.80;;;;;;4956501;28;1914;-70
2022/12/10 10:51:22;;;;;;;;;;;1.10;89.30;;;;;;4955456;28;1720;-72
2022/12/10 10:53:51;;;;;;;;;;;1.10;89.10;;;;;;4958632;28;1353;-71
2022/12/10 10:56:20;;;;;;;;;;;1.10;88.40;;;;;;4953871;29;1680;-69
2022/12/10 10:58:51;;;;;;;;;;;1.20;88.90;;;;;;4953460;28;1688;-72
2022/12/10 11:01:19;;;;;;;;;;;1.30;88.70;;;;;;4954839;29;987;-72
2022/12/10 11:03:49;;;;;;;;;;;1.40;89.00;;;;;;4954617;28;1575;-73
2022/12/10 11:06:18;;;;;;;;;;;1.40;88.00;;;;;;4954315;29;951;-75
2022/12/10 11:08:46;;;;;;;;;;;1.40;88.10;;;;;;4954680;29;2083;-72
2022/12/10 11:11:17;;;;;;;;;;;1.40;87.60;;;;;;4956639;29;1456;-75
2022/12/10 11:13:45;;;;;;;;;;;1.30;87.10;;;;;;4963799;28;1407;-79
2022/12/10 11:16:18;;;;;;;;;;;1.20;87.40;;;;;;4963500;28;1114;-75
2022/12/10 11:18:52;;;;;;;;;;;1.40;87.30;;;;;;4956207;29;979;-72
2022/12/10 11:21:22;;;;;;;;;;;1.40;86.50;;;;;;4955417;29;1042;-72
2022/12/10 11:23:52;;;;;;;;;;;1.20;87.20;;;;;;4955006;28;1384;-73
2022/12/10 11:26:29;;;;;;;;;;;1.10;86.90;;;;;;4954504;29;1416;-72
2022/12/10 11:29:02;;;;;;;;;;;1.10;85.50;;;;;;4955294;29;1906;-74
2022/12/10 11:31:38;;;;;;;;;;;1.30;86.60;;;;;;4954947;29;1025;-73
2022/12/10 11:34:09;;;;;;;;;;;1.40;86.30;;;;;;4954721;28;1343;-73
2022/12/10 11:36:41;;;;;;;;;;;1.30;86.90;;;;;;4954056;29;1731;-73
2022/12/10 11:39:18;;;;;;;;;;;1.30;86.70;;;;;;4954672;29;1732;-72
2022/12/10 11:41:49;;;;;;;;;;;1.40;86.40;;;;;;4954238;28;1048;-73
2022/12/10 11:44:21;;;;;;;;;;;1.30;87.40;;;;;;4953513;28;1451;-72
2022/12/10 11:46:58;;;;;;;;;;;1.30;88.40;;;;;;4954550;29;1382;-73
2022/12/10 11:49:30;;;;;;;;;;;1.20;88.50;;;;;;4954731;28;1919;-69
2022/12/10 11:52:05;;;;;;;;;;;1.30;88.00;;;;;;4955151;29;974;-69
2022/12/10 11:54:41;;;;;;;;;;;1.30;88.20;;;;;;4954892;28;1353;-70
2022/12/10 11:57:14;;;;;;;;;;;1.10;87.80;;;;;;4954629;28;1028;-71
2022/12/10 11:59:45;;;;;;;;;;;1.20;87.50;;;;;;4953350;29;1700;-70
2022/12/10 12:02:44;;;;;;;;;;;1.10;88.10;;;;;;4954339;28;1582;-72
2022/12/10 12:05:20;;;;;;;;;;;0.90;88.70;;;;;;4952410;29;1073;-73
2022/12/10 12:07:52;;;;;;;;;;;1.10;89.00;;;;;;4953103;28;1265;-72
2022/12/10 12:10:28;;;;;;;;;;;1.10;86.60;;;;;;4954651;28;1063;-72
2022/12/10 12:13:05;;;;;;;;;;;1.20;87.00;;;;;;4956480;28;1529;-72
2022/12/10 12:15:34;;;;;;;;;;;1.30;86.80;;;;;;4956372;29;1466;-72
2022/12/10 12:18:04;;;;;;;;;;;1.30;86.80;;;;;;4957501;28;1099;-72
2022/12/10 12:20:33;;;;;;;;;;;1.30;87.20;;;;;;4956063;29;1269;-71
2022/12/10 12:23:04;;;;;;;;;;;1.40;86.40;;;;;;4953612;28;1498;-72
2022/12/10 12:25:35;;;;;;;;;;;1.50;87.40;;;;;;4957755;29;1333;-73
2022/12/10 12:28:06;;;;;;;;;;;1.40;86.80;;;;;;4958147;29;1002;-73
2022/12/10 12:30:34;;;;;;;;;;;1.50;87.40;;;;;;4958137;29;1731;-71
2022/12/10 12:33:05;;;;;;;;;;;1.50;86.50;;;;;;4957868;28;1391;-70
2022/12/10 12:35:37;;;;;;;;;;;1.60;87.10;;;;;;4956627;28;1038;-69
2022/12/10 12:38:11;;;;;;;;;;;1.50;87.40;;;;;;4954956;28;1668;-70
2022/12/10 12:40:43;;;;;;;;;;;1.40;88.10;;;;;;4956553;29;1668;-71
2022/12/10 12:43:14;;;;;;;;;;;1.40;87.70;;;;;;4957730;28;1381;-70
2022/12/10 12:45:43;;;;;;;;;;;1.20;87.50;;;;;;4958307;29;1085;-68
2022/12/10 12:48:16;;;;;;;;;;;1.30;87.90;;;;;;4957981;29;1038;-69
2022/12/10 12:50:45;;;;;;;;;;;1.30;87.60;;;;;;4957870;28;1146;-68
2022/12/10 12:53:15;;;;;;;;;;;1.30;87.50;;;;;;4958070;28;1289;-69
2022/12/10 12:55:48;;;;;;;;;;;1.30;87.10;;;;;;4958065;29;1058;-70
2022/12/10 12:58:18;;;;;;;;;;;1.30;86.70;;;;;;4957728;29;1432;-69
2022/12/10 13:00:47;;;;;;;;;;;1.40;87.00;;;;;;4958257;29;1019;-69
2022/12/10 13:03:28;;;;;;;;;;;1.40;87.10;;;;;;4957839;28;1314;-70
2022/12/10 13:05:55;;;;;;;;;;;1.30;87.10;;;;;;4957774;29;1018;-69
2022/12/10 13:08:28;;;;;;;;;;;1.30;87.10;;;;;;4961836;29;1158;-69
2022/12/10 13:10:58;;;;;;;;;;;1.20;87.90;;;;;;4967359;28;1593;-69
2022/12/10 13:13:29;;;;;;;;;;;1.10;87.60;;;;;;4959363;28;1309;-69
2022/12/10 13:16:17;;;;;;;;;;;1.20;87.90;;;;;;4958147;29;998;-69
2022/12/10 13:18:45;;;;;;;;;;;1.20;88.00;;;;;;4956767;29;1739;-73
2022/12/10 13:21:30;;;;;;;;;;;1.10;87.50;;;;;;4956382;29;1724;-70
2022/12/10 13:24:10;;;;;;;;;;;0.90;87.50;;;;;;4955773;28;1831;-70
2022/12/10 13:26:41;;;;;;;;;;;0.90;87.20;;;;;;4957813;29;1696;-70
2022/12/10 13:29:13;;;;;;;;;;;1.00;86.50;;;;;;4957306;28;1910;-70
2022/12/10 13:31:41;;;;;;;;;;;1.00;86.40;;;;;;4956000;29;1696;-70
2022/12/10 13:34:23;;;;;;;;;;;1.20;86.60;;;;;;4957086;28;1355;-70
2022/12/10 13:37:05;;;;;;;;;;;1.20;86.50;;;;;;4956561;28;1017;-70
2022/12/10 13:39:35;;;;;;;;;;;1.30;86.40;;;;;;4956636;29;1739;-70
2022/12/10 13:45:26;;;;;;;;;;;1.50;86.60;;;;;;4878582;29;1087;-70
2022/12/10 13:47:55;;;;;;;;;;;1.40;85.10;;;;;;4877301;29;1500;-70
2022/12/10 13:50:33;;;;;;;;;;;1.30;84.90;;;;;;4926590;29;1899;-69
2022/12/10 13:53:04;;;;;;;;;;;1.30;85.10;;;;;;4956911;28;1394;-69
2022/12/10 13:55:35;;;;;;;;;;;1.30;85.40;;;;;;4956654;29;1042;-69
2022/12/10 13:58:13;;;;;;;;;;;1.40;85.20;;;;;;4955532;29;1280;-68
2022/12/10 14:00:45;;;;;;;;;;;1.10;85.50;;;;;;4955958;28;1477;-70
2022/12/10 14:03:28;;;;;;;;;;;0.90;86.40;;;;;;4956174;28;1285;-70
2022/12/10 14:06:05;;;;;;;;;;;1.00;86.60;;;;;;4955481;28;1015;-71
2022/12/10 14:08:34;;;;;;;;;;;1.10;86.10;;;;;;4956118;29;1411;-71
2022/12/10 14:11:05;;;;;;;;;;;1.10;86.10;;;;;;4956232;29;1903;-72
2022/12/10 14:13:37;;;;;;;;;;;1.40;87.10;;;;;;4956900;28;1304;-72
2022/12/10 14:16:06;;;;;;;;;;;1.00;86.40;;;;;;4955860;28;1099;-70
2022/12/10 14:18:34;;;;;;;;;;;1.00;86.30;;;;;;4955840;29;1347;-71
2022/12/10 14:21:04;;;;;;;;;;;1.10;85.90;;;;;;4955869;29;1735;-72
2022/12/10 14:23:41;;;;;;;;;;;1.10;86.30;;;;;;4955702;28;1241;-70
2022/12/10 14:26:15;;;;;;;;;;;1.20;86.00;;;;;;4956065;28;1161;-73
2022/12/10 14:28:44;;;;;;;;;;;1.00;86.00;;;;;;4955575;29;991;-71
2022/12/10 14:31:14;;;;;;;;;;;0.80;86.50;;;;;;4955821;29;1985;-72
2022/12/10 14:33:42;;;;;;;;;;;0.80;86.80;;;;;;4954414;28;1284;-72
2022/12/10 14:36:15;;;;;;;;;;;0.90;87.10;;;;;;4956022;28;1006;-72
2022/12/10 14:38:42;;;;;;;;;;;0.80;87.30;;;;;;4956663;29;1534;-71
2022/12/10 14:41:11;;;;;;;;;;;0.70;86.70;;;;;;4954946;29;1577;-71
2022/12/10 14:43:41;;;;;;;;;;;0.80;86.70;;;;;;4956191;28;1410;-73
2022/12/10 14:46:13;;;;;;;;;;;0.90;85.80;;;;;;4955245;29;1134;-73
2022/12/10 14:48:42;;;;;;;;;;;0.90;85.80;;;;;;4955422;28;1034;-69
2022/12/10 14:51:13;;;;;;;;;;;1.00;86.00;;;;;;4955670;29;1919;-70
2022/12/10 14:53:41;;;;;;;;;;;1.10;86.50;;;;;;4957419;28;1359;-69
2022/12/10 14:56:13;;;;;;;;;;;1.20;85.80;;;;;;4955306;29;1150;-69
2022/12/10 14:58:46;;;;;;;;;;;1.20;85.90;;;;;;4954892;29;1236;-70
2022/12/10 15:01:16;;;;;;;;;;;1.30;86.00;;;;;;4955248;29;987;-68
2022/12/10 15:03:46;;;;;;;;;;;0.90;86.00;;;;;;4954098;28;1289;-70
2022/12/10 15:06:16;;;;;;;;;;;0.70;87.70;;;;;;4954502;29;1073;-68
2022/12/10 15:08:45;;;;;;;;;;;0.50;88.60;;;;;;4954884;28;1673;-69
2022/12/10 15:11:15;;;;;;;;;;;0.50;88.90;;;;;;4954956;28;1987;-70
2022/12/10 15:13:46;;;;;;;;;;;0.60;89.40;;;;;;4952876;28;1546;-69
2022/12/10 15:16:18;;;;;;;;;;;0.50;88.50;;;;;;4954232;29;995;-69
2022/12/10 15:18:46;;;;;;;;;;;0.40;88.30;;;;;;4954065;29;1176;-67
2022/12/10 15:21:16;;;;;;;;;;;0.40;89.10;;;;;;4955149;28;1015;-67
2022/12/10 15:23:45;;;;;;;;;;;0.40;89.80;;;;;;4954523;28;1353;-67